Time;durP1;ratioP1;P1;durP2;ratioP2;P2;SDS_P1;SDS_P2;PMS_P1;PMS_P2;Temp;Humidity;BMP_temperature;BMP_pressure;BME280_temperature;BME280_humidity;BME280_pressure;Samples;Min_cycle;Max_cycle;Signal;HPM_P1;HPM_P2
2022/04/18 00:01:28;;;;;;;3.13;1.80;;;;;;;;;;10456461;28;20045;-44
2022/04/18 00:06:29;;;;;;;1.77;1.35;;;;;;;;;;10456595;28;20028;-47
2022/04/18 00:11:29;;;;;;;3.83;1.67;;;;;;;;;;10456006;28;20124;-45
2022/04/18 00:16:30;;;;;;;3.47;1.98;;;;;;;;;;10456004;28;20542;-45
2022/04/18 00:21:31;;;;;;;1.92;1.48;;;;;;;;;;10455766;28;20041;-45
2022/04/18 00:26:32;;;;;;;4.05;1.83;;;;;;;;;;10456479;28;20021;-44
2022/04/18 00:31:32;;;;;;;3.47;1.60;;;;;;;;;;10455406;28;20029;-45
2022/04/18 00:36:33;;;;;;;4.13;1.50;;;;;;;;;;10452977;28;20033;-43
2022/04/18 00:41:34;;;;;;;3.28;1.67;;;;;;;;;;10447956;28;20037;-45
2022/04/18 00:46:34;;;;;;;2.22;1.30;;;;;;;;;;10414146;28;20026;-46
2022/04/18 00:51:35;;;;;;;3.67;1.70;;;;;;;;;;10437157;28;20033;-45
2022/04/18 00:56:36;;;;;;;2.03;1.65;;;;;;;;;;10446939;28;20500;-47
2022/04/18 01:01:37;;;;;;;2.78;2.10;;;;;;;;;;10453999;28;20415;-44
2022/04/18 01:06:38;;;;;;;5.05;1.70;;;;;;;;;;10454397;28;20377;-45
2022/04/18 01:11:39;;;;;;;1.60;1.27;;;;;;;;;;10436244;28;20025;-46
2022/04/18 01:16:39;;;;;;;2.47;1.40;;;;;;;;;;10454001;28;20035;-45
2022/04/18 01:21:40;;;;;;;3.05;1.83;;;;;;;;;;10453522;28;20040;-44
2022/04/18 01:32:00;;;;;;;2.22;1.55;;;;;;;;;;10453325;28;20037;-44
2022/04/18 01:37:00;;;;;;;2.45;1.70;;;;;;;;;;10453386;28;20025;-44
2022/04/18 01:42:01;;;;;;;2.20;1.67;;;;;;;;;;10452567;28;20043;-44
2022/04/18 01:47:02;;;;;;;4.20;1.50;;;;;;;;;;10452702;28;20044;-44
2022/04/18 01:52:03;;;;;;;1.90;1.50;;;;;;;;;;10451975;28;20029;-42
2022/04/18 01:57:04;;;;;;;3.17;1.52;;;;;;;;;;10452143;28;20044;-44
2022/04/18 02:02:04;;;;;;;3.97;1.83;;;;;;;;;;10433773;28;20119;-44
2022/04/18 02:07:05;;;;;;;2.03;1.55;;;;;;;;;;10452168;28;20044;-42
2022/04/18 02:12:06;;;;;;;1.90;1.40;;;;;;;;;;10450820;28;20419;-42
2022/04/18 02:17:07;;;;;;;2.67;1.50;;;;;;;;;;10451478;28;20041;-44
2022/04/18 02:22:08;;;;;;;2.42;1.38;;;;;;;;;;10451006;28;20481;-44
2022/04/18 02:27:09;;;;;;;2.80;1.70;;;;;;;;;;10451051;28;20032;-45
2022/04/18 02:37:28;;;;;;;1.73;1.35;;;;;;;;;;10450627;28;20064;-42
2022/04/18 02:42:29;;;;;;;3.88;1.55;;;;;;;;;;10450279;28;20028;-38
2022/04/18 02:47:29;;;;;;;3.03;1.38;;;;;;;;;;10450239;28;20083;-45
2022/04/18 02:52:31;;;;;;;4.45;1.30;;;;;;;;;;10449698;28;20045;-44
2022/04/18 02:57:32;;;;;;;2.55;1.50;;;;;;;;;;10450047;28;20041;-45
2022/04/18 03:02:32;;;;;;;2.65;1.55;;;;;;;;;;10449344;28;20059;-37
2022/04/18 03:07:33;;;;;;;2.15;1.23;;;;;;;;;;10449532;28;20480;-41
2022/04/18 03:12:34;;;;;;;2.10;1.58;;;;;;;;;;10449174;28;20032;-44
2022/04/18 03:17:35;;;;;;;1.40;1.30;;;;;;;;;;10449760;28;20025;-44
2022/04/18 03:22:35;;;;;;;3.50;1.60;;;;;;;;;;10449887;28;20033;-45
2022/04/18 03:27:36;;;;;;;1.98;1.58;;;;;;;;;;10458072;28;20037;-45
2022/04/18 03:32:37;;;;;;;2.03;1.40;;;;;;;;;;10457344;28;20044;-47
2022/04/18 03:42:56;;;;;;;3.10;1.60;;;;;;;;;;10457315;28;20442;-43
2022/04/18 03:47:57;;;;;;;2.65;1.25;;;;;;;;;;10457827;28;20024;-47
2022/04/18 03:52:57;;;;;;;2.58;1.60;;;;;;;;;;10457027;28;20036;-45
2022/04/18 03:57:58;;;;;;;4.25;1.40;;;;;;;;;;10456814;28;20048;-45
2022/04/18 04:02:59;;;;;;;2.78;1.60;;;;;;;;;;10456742;28;20444;-44
2022/04/18 04:07:59;;;;;;;2.08;1.35;;;;;;;;;;10456211;28;20501;-44
2022/04/18 04:13:00;;;;;;;3.67;1.55;;;;;;;;;;10456123;28;20378;-45
2022/04/18 04:18:01;;;;;;;2.15;1.40;;;;;;;;;;10456394;28;20465;-47
2022/04/18 04:23:01;;;;;;;2.05;1.40;;;;;;;;;;10456028;28;20037;-46
2022/04/18 04:28:02;;;;;;;2.15;1.20;;;;;;;;;;10455674;28;20531;-44
2022/04/18 04:33:03;;;;;;;1.67;1.30;;;;;;;;;;10454833;28;20168;-46
2022/04/18 04:38:04;;;;;;;1.30;1.20;;;;;;;;;;10455116;28;20040;-46
2022/04/18 04:43:04;;;;;;;1.60;1.42;;;;;;;;;;10455295;28;20025;-37
2022/04/18 04:48:05;;;;;;;2.33;1.50;;;;;;;;;;10454849;28;20044;-37
2022/04/18 04:53:06;;;;;;;1.70;1.20;;;;;;;;;;10454102;28;20067;-41
2022/04/18 04:58:06;;;;;;;1.92;1.45;;;;;;;;;;10454275;28;20044;-40
2022/04/18 05:03:07;;;;;;;1.40;1.30;;;;;;;;;;10454158;28;20055;-38
2022/04/18 05:08:08;;;;;;;4.30;1.20;;;;;;;;;;10454105;28;20033;-38
2022/04/18 05:13:08;;;;;;;1.50;1.38;;;;;;;;;;10453807;28;20044;-44
2022/04/18 05:18:09;;;;;;;11.77;1.77;;;;;;;;;;10453497;28;20392;-36
2022/04/18 05:23:11;;;;;;;2.08;1.30;;;;;;;;;;10453082;28;20388;-37
2022/04/18 05:28:12;;;;;;;1.92;1.40;;;;;;;;;;10453244;28;20507;-36
2022/04/18 05:33:12;;;;;;;3.95;1.40;;;;;;;;;;10452744;28;20251;-37
2022/04/18 05:38:14;;;;;;;4.15;1.40;;;;;;;;;;10453292;28;20059;-44
2022/04/18 05:43:18;;;;;;;1.20;1.10;;;;;;;;;;10452520;28;20033;-37
2022/04/18 05:48:18;;;;;;;4.82;1.40;;;;;;;;;;10451754;28;20449;-38
2022/04/18 05:53:28;;;;;;;3.33;1.10;;;;;;;;;;10451778;28;20039;-39
2022/04/18 05:58:28;;;;;;;1.25;1.15;;;;;;;;;;10451938;28;20053;-37
2022/04/18 06:03:29;;;;;;;1.02;1.00;;;;;;;;;;10449394;28;20029;-44
2022/04/18 06:08:29;;;;;;;1.92;1.23;;;;;;;;;;10452576;28;20423;-45
2022/04/18 06:13:30;;;;;;;1.25;1.10;;;;;;;;;;10434580;28;20033;-45
2022/04/18 06:18:30;;;;;;;1.30;1.20;;;;;;;;;;10423207;28;20033;-45
2022/04/18 06:23:31;;;;;;;3.90;1.38;;;;;;;;;;10445498;28;20033;-44
2022/04/18 06:28:32;;;;;;;2.22;1.27;;;;;;;;;;10469409;28;20407;-44
2022/04/18 06:33:34;;;;;;;2.17;1.35;;;;;;;;;;10450088;28;20044;-45
2022/04/18 06:38:34;;;;;;;3.97;1.30;;;;;;;;;;10439355;28;20430;-46
2022/04/18 06:43:36;;;;;;;1.55;1.30;;;;;;;;;;10430901;28;20041;-43
2022/04/18 06:48:37;;;;;;;1.27;1.17;;;;;;;;;;10446533;28;20257;-46
2022/04/18 06:53:37;;;;;;;1.90;1.30;;;;;;;;;;10450100;28;20218;-38
2022/04/18 06:58:38;;;;;;;12.68;2.45;;;;;;;;;;10401192;28;20045;-42
2022/04/18 07:03:39;;;;;;;7.78;2.58;;;;;;;;;;10404507;28;20029;-44
2022/04/18 07:08:39;;;;;;;4.70;2.85;;;;;;;;;;10397713;28;20045;-45
2022/04/18 07:13:40;;;;;;;5.68;2.28;;;;;;;;;;10403447;28;20491;-46
2022/04/18 07:18:40;;;;;;;6.70;3.03;;;;;;;;;;10385272;28;20095;-47
2022/04/18 07:23:41;;;;;;;4.55;2.50;;;;;;;;;;10384078;28;20095;-47
2022/04/18 07:28:41;;;;;;;9.50;2.80;;;;;;;;;;10384028;28;20033;-46
2022/04/18 07:33:42;;;;;;;8.20;3.03;;;;;;;;;;10373706;28;20045;-44
2022/04/18 07:38:48;;;;;;;3.53;2.00;;;;;;;;;;10369791;28;20034;-47
2022/04/18 07:43:50;;;;;;;9.63;2.33;;;;;;;;;;10382387;28;20028;-46
2022/04/18 07:48:52;;;;;;;4.75;2.10;;;;;;;;;;10391384;28;20418;-50
2022/04/18 07:53:53;;;;;;;7.80;2.35;;;;;;;;;;10394387;28;20200;-45
2022/04/18 07:58:54;;;;;;;4.55;2.47;;;;;;;;;;10433713;28;20044;-49
2022/04/18 08:03:57;;;;;;;5.38;1.98;;;;;;;;;;10437649;28;20029;-46
2022/04/18 08:08:58;;;;;;;6.18;2.83;;;;;;;;;;10437331;28;20033;-45
2022/04/18 08:13:59;;;;;;;8.32;2.60;;;;;;;;;;10455493;28;20154;-43
2022/04/18 08:19:00;;;;;;;13.60;2.55;;;;;;;;;;10450206;28;20473;-43
2022/04/18 08:24:00;;;;;;;7.65;2.38;;;;;;;;;;10435030;28;20024;-48
2022/04/18 08:29:01;;;;;;;8.70;2.40;;;;;;;;;;10442483;28;20029;-44
2022/04/18 08:34:03;;;;;;;7.40;2.78;;;;;;;;;;10437729;28;20493;-44
2022/04/18 08:39:04;;;;;;;6.50;2.50;;;;;;;;;;10432344;28;20107;-46
2022/04/18 08:44:05;;;;;;;6.93;2.35;;;;;;;;;;10440249;28;20035;-40
2022/04/18 08:54:26;;;;;;;14.70;2.75;;;;;;;;;;10413725;28;20120;-45
2022/04/18 08:59:27;;;;;;;14.95;2.83;;;;;;;;;;10431859;28;20124;-43
2022/04/18 09:04:28;;;;;;;18.80;3.63;;;;;;;;;;10440539;28;20048;-42
2022/04/18 09:09:29;;;;;;;15.68;2.65;;;;;;;;;;10431360;28;20041;-44
2022/04/18 09:14:33;;;;;;;10.07;2.13;;;;;;;;;;10428821;28;20049;-44
2022/04/18 09:19:34;;;;;;;7.15;2.20;;;;;;;;;;10456148;28;20029;-43
2022/04/18 09:24:36;;;;;;;10.10;2.35;;;;;;;;;;10435026;28;20028;-44
2022/04/18 09:29:40;;;;;;;8.32;2.47;;;;;;;;;;10451761;28;20052;-42
2022/04/18 09:34:41;;;;;;;4.57;1.95;;;;;;;;;;10452519;28;20388;-45
2022/04/18 09:39:52;;;;;;;2.67;1.90;;;;;;;;;;10453027;28;20025;-46
2022/04/18 09:44:53;;;;;;;8.98;2.33;;;;;;;;;;10452591;28;20059;-43
2022/04/18 09:49:53;;;;;;;4.32;2.45;;;;;;;;;;10452895;28;20060;-46
2022/04/18 09:54:57;;;;;;;5.70;2.20;;;;;;;;;;10452061;28;20029;-43
2022/04/18 09:59:59;;;;;;;4.93;2.40;;;;;;;;;;10452060;28;20052;-45
2022/04/18 10:05:01;;;;;;;5.95;2.00;;;;;;;;;;10451790;28;20116;-43
2022/04/18 10:10:02;;;;;;;5.18;2.30;;;;;;;;;;10451256;28;20029;-42
2022/04/18 10:15:04;;;;;;;4.53;2.28;;;;;;;;;;10451538;28;20112;-43
2022/04/18 10:20:37;;;;;;;3.40;2.15;;;;;;;;;;10451245;28;20055;-43
2022/04/18 10:26:17;;;;;;;7.97;2.28;;;;;;;;;;10446953;28;20044;-45
2022/04/18 10:31:33;;;;;;;3.08;2.05;;;;;;;;;;10450411;28;20037;-43
2022/04/18 10:36:34;;;;;;;5.85;2.00;;;;;;;;;;10450705;28;20032;-47
2022/04/18 10:41:46;;;;;;;6.35;2.15;;;;;;;;;;10450313;28;20025;-43
2022/04/18 10:46:53;;;;;;;5.22;2.13;;;;;;;;;;10450533;28;20104;-43
2022/04/18 10:51:54;;;;;;;6.75;2.60;;;;;;;;;;10449713;28;20033;-43
2022/04/18 10:57:05;;;;;;;5.68;2.67;;;;;;;;;;10449815;28;20057;-44
2022/04/18 11:02:07;;;;;;;5.07;2.10;;;;;;;;;;10449880;28;20083;-44
2022/04/18 11:07:09;;;;;;;3.10;2.08;;;;;;;;;;10449502;28;20028;-43
2022/04/18 11:12:17;;;;;;;4.00;2.15;;;;;;;;;;10449679;28;20043;-44
2022/04/18 11:17:31;;;;;;;6.50;1.83;;;;;;;;;;10431709;28;20044;-43
2022/04/18 11:22:32;;;;;;;5.07;2.17;;;;;;;;;;10449353;28;20384;-45
2022/04/18 11:27:36;;;;;;;5.47;2.30;;;;;;;;;;10449178;28;20021;-46
2022/04/18 11:32:46;;;;;;;3.28;1.95;;;;;;;;;;10449424;28;20037;-44
2022/04/18 11:37:47;;;;;;;4.95;2.20;;;;;;;;;;10431474;28;20033;-45
2022/04/18 11:42:47;;;;;;;4.88;2.10;;;;;;;;;;10449546;28;20400;-45
2022/04/18 11:47:48;;;;;;;4.43;2.40;;;;;;;;;;10456560;28;20055;-45
2022/04/18 11:53:04;;;;;;;5.18;2.42;;;;;;;;;;10457341;28;20074;-45
2022/04/18 11:58:04;;;;;;;4.30;2.22;;;;;;;;;;10456526;28;20074;-45
2022/04/18 12:08:26;;;;;;;3.63;2.17;;;;;;;;;;10456986;28;20029;-45
2022/04/18 12:13:27;;;;;;;3.20;2.08;;;;;;;;;;10456324;28;20069;-46
2022/04/18 12:18:28;;;;;;;9.85;2.10;;;;;;;;;;10456072;28;20561;-46
2022/04/18 12:23:28;;;;;;;3.67;2.63;;;;;;;;;;10456191;28;20469;-46
2022/04/18 12:28:30;;;;;;;2.45;2.00;;;;;;;;;;10455632;28;20520;-45
2022/04/18 12:33:30;;;;;;;3.42;2.17;;;;;;;;;;10455841;28;20025;-45
2022/04/18 12:38:36;;;;;;;2.00;1.80;;;;;;;;;;10455133;28;20074;-45
2022/04/18 12:43:39;;;;;;;3.78;1.98;;;;;;;;;;10455235;28;20083;-45
2022/04/18 12:48:48;;;;;;;3.08;2.10;;;;;;;;;;10455206;28;20435;-44
2022/04/18 12:53:54;;;;;;;3.17;1.80;;;;;;;;;;10454520;28;20025;-47
2022/04/18 12:58:55;;;;;;;3.25;2.15;;;;;;;;;;10454484;28;20140;-45
2022/04/18 13:03:56;;;;;;;3.17;2.03;;;;;;;;;;10454257;28;20054;-45
2022/04/18 13:09:05;;;;;;;4.13;2.30;;;;;;;;;;10454196;28;20033;-46
2022/04/18 13:14:07;;;;;;;3.75;2.28;;;;;;;;;;10453760;28;20037;-45
2022/04/18 13:19:12;;;;;;;4.07;2.20;;;;;;;;;;10453945;28;20609;-44
2022/04/18 13:24:13;;;;;;;2.67;1.92;;;;;;;;;;10453257;28;20037;-43
2022/04/18 13:29:14;;;;;;;3.20;2.28;;;;;;;;;;10453507;28;20025;-45
2022/04/18 13:34:14;;;;;;;3.30;2.05;;;;;;;;;;10452993;28;20047;-44
2022/04/18 13:39:15;;;;;;;5.38;2.28;;;;;;;;;;10452614;28;20100;-45
2022/04/18 13:44:16;;;;;;;3.10;2.10;;;;;;;;;;10452967;28;20021;-42
2022/04/18 13:49:17;;;;;;;3.20;2.13;;;;;;;;;;10452306;28;20396;-43
2022/04/18 13:54:17;;;;;;;3.03;2.08;;;;;;;;;;10434318;28;20060;-48
2022/04/18 13:59:18;;;;;;;2.65;2.00;;;;;;;;;;10452069;28;20057;-43
2022/04/18 14:04:18;;;;;;;4.05;2.20;;;;;;;;;;10450861;28;20488;-42
2022/04/18 14:09:19;;;;;;;6.82;1.90;;;;;;;;;;10451051;28;20037;-45
2022/04/18 14:24:58;;;;;;;4.30;2.08;;;;;;;;;;10451597;28;20029;-44
2022/04/18 14:29:59;;;;;;;2.15;1.95;;;;;;;;;;10451138;28;20021;-44
2022/04/18 14:34:59;;;;;;;3.70;2.08;;;;;;;;;;10450339;28;20036;-43
2022/04/18 14:40:00;;;;;;;2.42;2.22;;;;;;;;;;10450633;28;20021;-46
2022/04/18 14:45:01;;;;;;;3.42;1.92;;;;;;;;;;10450238;28;20029;-43
2022/04/18 14:50:02;;;;;;;2.72;2.17;;;;;;;;;;10450527;28;20079;-45
2022/04/18 14:55:03;;;;;;;3.28;1.90;;;;;;;;;;10449764;28;20025;-44
2022/04/18 15:00:05;;;;;;;4.90;2.40;;;;;;;;;;10450066;28;20052;-45
2022/04/18 15:05:06;;;;;;;3.45;2.00;;;;;;;;;;10450094;28;20031;-46
2022/04/18 15:10:07;;;;;;;2.88;1.95;;;;;;;;;;10449547;28;20041;-44
2022/04/18 15:15:08;;;;;;;2.35;1.85;;;;;;;;;;10449765;28;20070;-43
2022/04/18 15:20:09;;;;;;;2.85;1.90;;;;;;;;;;10449304;28;20036;-43
2022/04/18 15:25:11;;;;;;;2.60;2.13;;;;;;;;;;10449564;28;20408;-45
2022/04/18 15:35:32;;;;;;;2.00;1.80;;;;;;;;;;10449335;28;20041;-44
2022/04/18 15:40:34;;;;;;;2.97;2.00;;;;;;;;;;10449095;28;20056;-47
2022/04/18 15:45:34;;;;;;;5.43;2.42;;;;;;;;;;10449183;28;20480;-45
2022/04/18 15:50:39;;;;;;;2.75;1.90;;;;;;;;;;10448818;28;20040;-45
2022/04/18 15:55:39;;;;;;;2.45;1.80;;;;;;;;;;10448642;28;20021;-45
2022/04/18 16:00:40;;;;;;;2.75;1.60;;;;;;;;;;10448711;28;20401;-42
2022/04/18 16:05:42;;;;;;;2.72;1.95;;;;;;;;;;10448718;28;20032;-45
2022/04/18 16:10:43;;;;;;;1.80;1.70;;;;;;;;;;10448093;28;20037;-44
2022/04/18 16:15:43;;;;;;;2.45;1.75;;;;;;;;;;10448584;28;20037;-45
2022/04/18 16:20:44;;;;;;;3.03;1.80;;;;;;;;;;10448669;28;20025;-45
2022/04/18 16:25:45;;;;;;;2.33;1.80;;;;;;;;;;10447988;28;20431;-45
2022/04/18 16:36:04;;;;;;;2.20;2.00;;;;;;;;;;10455562;28;20476;-45
2022/04/18 16:46:24;;;;;;;2.40;1.70;;;;;;;;;;10455629;28;20475;-44
2022/04/18 16:51:25;;;;;;;2.90;1.90;;;;;;;;;;10452624;28;20029;-43
2022/04/18 16:56:25;;;;;;;2.25;2.05;;;;;;;;;;10453788;28;20045;-44
2022/04/18 17:01:26;;;;;;;2.10;1.90;;;;;;;;;;10443209;28;20043;-45
2022/04/18 17:06:26;;;;;;;2.20;1.83;;;;;;;;;;10416600;28;20037;-47
2022/04/18 17:11:27;;;;;;;5.88;1.88;;;;;;;;;;10412347;28;20060;-46
2022/04/18 17:16:29;;;;;;;2.00;1.85;;;;;;;;;;10417753;28;20060;-42
2022/04/18 17:21:30;;;;;;;3.67;1.90;;;;;;;;;;10411159;28;20515;-44
2022/04/18 17:26:30;;;;;;;3.92;1.92;;;;;;;;;;10432544;28;20120;-46
2022/04/18 17:31:31;;;;;;;3.20;1.70;;;;;;;;;;10430016;28;20034;-44
2022/04/18 17:36:33;;;;;;;3.80;1.92;;;;;;;;;;10428075;28;20037;-42
2022/04/18 17:41:33;;;;;;;3.58;1.80;;;;;;;;;;10427812;28;20033;-42
2022/04/18 17:46:34;;;;;;;9.38;2.20;;;;;;;;;;10433213;28;20047;-42
2022/04/18 17:51:35;;;;;;;2.75;1.92;;;;;;;;;;10423346;28;20037;-42
2022/04/18 17:56:36;;;;;;;7.15;2.38;;;;;;;;;;10438788;28;20563;-46
2022/04/18 18:01:37;;;;;;;4.38;2.15;;;;;;;;;;10474868;28;20086;-42
2022/04/18 18:06:37;;;;;;;5.70;2.40;;;;;;;;;;10417762;28;20028;-46
2022/04/18 18:11:38;;;;;;;9.10;2.13;;;;;;;;;;10424014;28;20078;-44
2022/04/18 18:16:40;;;;;;;7.68;2.80;;;;;;;;;;10440108;28;20036;-45
2022/04/18 18:21:40;;;;;;;8.13;2.30;;;;;;;;;;10444731;28;20111;-44
2022/04/18 18:26:41;;;;;;;6.22;2.40;;;;;;;;;;10445895;28;20040;-45
2022/04/18 18:31:42;;;;;;;7.10;2.33;;;;;;;;;;10425155;28;20041;-44
2022/04/18 18:36:43;;;;;;;4.60;2.30;;;;;;;;;;10451486;28;20466;-43
2022/04/18 18:41:43;;;;;;;6.35;2.28;;;;;;;;;;10456604;28;20101;-45
2022/04/18 18:46:44;;;;;;;7.03;2.13;;;;;;;;;;10416345;28;20040;-45
2022/04/18 18:57:04;;;;;;;2.60;2.10;;;;;;;;;;10415985;28;20436;-44
2022/04/18 19:02:04;;;;;;;6.20;2.15;;;;;;;;;;10439529;28;20033;-46
2022/04/18 19:07:05;;;;;;;3.90;2.17;;;;;;;;;;10413322;28;20117;-45
2022/04/18 19:12:06;;;;;;;7.90;2.90;;;;;;;;;;10438979;28;20021;-47
2022/04/18 19:27:45;;;;;;;21.67;3.50;;;;;;;;;;10428803;28;20037;-46
2022/04/18 19:32:46;;;;;;;10.23;3.03;;;;;;;;;;10413485;28;20037;-47
2022/04/18 19:37:47;;;;;;;12.63;3.17;;;;;;;;;;10429319;28;20029;-45
2022/04/18 19:42:48;;;;;;;8.80;3.03;;;;;;;;;;10433902;28;20039;-46
2022/04/18 19:47:49;;;;;;;5.70;2.03;;;;;;;;;;10424827;28;20030;-44
2022/04/18 19:52:50;;;;;;;14.10;2.60;;;;;;;;;;10431017;28;20040;-45
2022/04/18 19:57:50;;;;;;;7.28;2.60;;;;;;;;;;10407893;28;20046;-45
2022/04/18 20:02:51;;;;;;;6.15;2.70;;;;;;;;;;10427587;28;20538;-44
2022/04/18 20:07:52;;;;;;;18.20;2.85;;;;;;;;;;10455474;28;20605;-44
2022/04/18 20:12:54;;;;;;;6.13;2.72;;;;;;;;;;10441356;28;20029;-45
2022/04/18 20:17:54;;;;;;;8.48;2.78;;;;;;;;;;10442707;28;20024;-46
2022/04/18 20:22:57;;;;;;;9.48;2.70;;;;;;;;;;10450410;28;20063;-46
2022/04/18 20:27:58;;;;;;;15.43;3.40;;;;;;;;;;10453198;28;20021;-43
2022/04/18 20:32:59;;;;;;;10.13;3.05;;;;;;;;;;10452794;28;20029;-43
2022/04/18 20:38:01;;;;;;;8.95;2.80;;;;;;;;;;10451548;28;20040;-44
2022/04/18 20:43:03;;;;;;;10.43;2.63;;;;;;;;;;10454461;28;20037;-43
2022/04/18 20:48:05;;;;;;;10.18;2.33;;;;;;;;;;10436766;28;20032;-44
2022/04/18 20:58:31;;;;;;;11.68;2.78;;;;;;;;;;10454414;28;20037;-42
2022/04/18 21:03:33;;;;;;;23.40;3.60;;;;;;;;;;10438838;28;20040;-43
2022/04/18 21:08:35;;;;;;;20.92;3.83;;;;;;;;;;10413335;28;20037;-44
2022/04/18 21:13:37;;;;;;;7.97;2.92;;;;;;;;;;10415115;28;20404;-44
2022/04/18 21:18:38;;;;;;;17.88;3.90;;;;;;;;;;10438722;28;20051;-40
2022/04/18 21:23:38;;;;;;;13.73;3.30;;;;;;;;;;10437807;28;20079;-43
2022/04/18 21:28:40;;;;;;;7.15;3.17;;;;;;;;;;10463180;28;20025;-42
2022/04/18 21:33:42;;;;;;;11.85;3.38;;;;;;;;;;10452400;28;20029;-40
2022/04/18 21:38:43;;;;;;;9.35;2.60;;;;;;;;;;10449833;28;20507;-42
2022/04/18 21:43:43;;;;;;;13.63;3.35;;;;;;;;;;10450781;28;20040;-47
2022/04/18 21:48:47;;;;;;;22.15;3.30;;;;;;;;;;10448137;28;20028;-41
2022/04/18 21:53:48;;;;;;;9.48;3.35;;;;;;;;;;10434454;28;20079;-42
2022/04/18 21:58:49;;;;;;;10.85;3.38;;;;;;;;;;10452940;28;20624;-41
2022/04/18 22:03:49;;;;;;;14.00;2.92;;;;;;;;;;10432213;28;20476;-42
2022/04/18 22:08:51;;;;;;;11.43;2.85;;;;;;;;;;10446104;28;20112;-41
2022/04/18 22:13:52;;;;;;;6.43;2.20;;;;;;;;;;10451775;28;20396;-42
2022/04/18 22:29:31;;;;;;;6.68;2.30;;;;;;;;;;10417493;28;20029;-46
2022/04/18 22:34:34;;;;;;;8.75;2.88;;;;;;;;;;10450780;28;20029;-45
2022/04/18 22:39:35;;;;;;;9.82;2.20;;;;;;;;;;10450507;28;20065;-45
2022/04/18 22:44:36;;;;;;;7.40;2.83;;;;;;;;;;10450805;28;20060;-48
2022/04/18 22:49:36;;;;;;;11.45;2.80;;;;;;;;;;10450217;28;20025;-47
2022/04/18 22:54:37;;;;;;;8.40;2.03;;;;;;;;;;10450680;28;20036;-49
2022/04/18 22:59:41;;;;;;;8.57;2.25;;;;;;;;;;10449584;28;20439;-48
2022/04/18 23:05:53;;;;;;;6.57;2.42;;;;;;;;;;10449736;28;20373;-45
2022/04/18 23:10:10;;;;;;;9.55;2.45;;;;;;;;;;10449412;28;20445;-47
2022/04/18 23:15:11;;;;;;;6.93;2.65;;;;;;;;;;10431974;28;20159;-45
2022/04/18 23:20:12;;;;;;;6.38;2.38;;;;;;;;;;10449822;28;20033;-49
2022/04/18 23:25:13;;;;;;;3.10;1.90;;;;;;;;;;10449461;28;20028;-47
2022/04/18 23:30:14;;;;;;;4.97;2.17;;;;;;;;;;10448882;28;20040;-48
2022/04/18 23:35:15;;;;;;;9.68;2.45;;;;;;;;;;10449278;28;20071;-47
2022/04/18 23:45:35;;;;;;;4.88;2.53;;;;;;;;;;10458261;28;20037;-45
2022/04/18 23:50:47;;;;;;;10.68;2.40;;;;;;;;;;10457143;28;20810;-44
2022/04/18 23:55:50;;;;;;;6.97;2.38;;;;;;;;;;10456890;28;20041;-43
